Time;durP1;ratioP1;P1;durP2;ratioP2;P2;SDS_P1;SDS_P2;PMS_P1;PMS_P2;Temp;Humidity;BMP_temperature;BMP_pressure;BME280_temperature;BME280_humidity;BME280_pressure;Samples;Min_cycle;Max_cycle;Signal;HPM_P1;HPM_P2
2021/10/24 00:01:19;;;;;;;0.90;0.90;;;5.50;99.90;;;;;;5092528;28;20389;-71
2021/10/24 00:03:45;;;;;;;0.40;0.30;;;5.40;99.90;;;;;;5093532;28;20486;-70
2021/10/24 00:06:10;;;;;;;0.50;0.50;;;5.30;99.90;;;;;;5092654;28;20390;-70
2021/10/24 00:08:36;;;;;;;0.40;0.20;;;5.40;99.90;;;;;;5092850;28;20729;-70
2021/10/24 00:11:01;;;;;;;0.40;0.20;;;5.30;99.90;;;;;;5093736;28;20427;-70
2021/10/24 00:13:29;;;;;;;0.40;0.20;;;5.20;99.90;;;;;;5091547;28;20493;-70
2021/10/24 00:15:55;;;;;;;0.40;0.30;;;5.30;99.90;;;;;;5093468;28;20380;-70
2021/10/24 00:18:20;;;;;;;0.40;0.20;;;5.20;99.90;;;;;;5092731;28;20386;-72
2021/10/24 00:20:46;;;;;;;0.40;0.20;;;5.20;99.90;;;;;;5093274;28;20449;-70
2021/10/24 00:23:13;;;;;;;0.40;0.20;;;5.10;99.90;;;;;;5093519;28;20402;-70
2021/10/24 00:25:39;;;;;;;0.50;0.50;;;5.10;99.90;;;;;;5092606;28;20443;-70
2021/10/24 00:28:05;;;;;;;0.50;0.50;;;5.00;99.90;;;;;;5091883;28;20382;-70
2021/10/24 00:30:31;;;;;;;0.40;0.20;;;4.90;99.90;;;;;;5092523;28;20386;-70
2021/10/24 00:32:56;;;;;;;0.40;0.20;;;4.90;99.90;;;;;;5093632;28;20377;-70
2021/10/24 00:35:22;;;;;;;0.40;0.20;;;4.80;99.90;;;;;;5091587;28;20474;-71
2021/10/24 00:37:48;;;;;;;0.40;0.20;;;4.90;99.90;;;;;;5091806;28;20953;-70
2021/10/24 00:40:13;;;;;;;0.40;0.20;;;5.00;99.90;;;;;;5093093;28;20378;-70
2021/10/24 00:42:47;;;;;;;0.40;0.20;;;5.00;99.90;;;;;;5092794;28;20406;-70
2021/10/24 00:45:13;;;;;;;0.40;0.20;;;4.90;99.90;;;;;;5092923;28;20410;-70
2021/10/24 00:47:39;;;;;;;0.40;0.20;;;4.90;99.90;;;;;;5092447;28;20890;-70
2021/10/24 00:50:05;;;;;;;0.53;0.30;;;4.80;99.90;;;;;;5093069;28;20489;-70
2021/10/24 00:52:31;;;;;;;0.40;0.20;;;4.80;99.90;;;;;;5091560;28;20454;-70
2021/10/24 00:54:56;;;;;;;0.40;0.20;;;4.80;99.90;;;;;;5079278;28;20390;-70
2021/10/24 00:57:22;;;;;;;0.40;0.20;;;4.90;99.90;;;;;;5091421;28;20737;-72
2021/10/24 00:59:48;;;;;;;0.40;0.30;;;4.80;99.90;;;;;;5071717;28;20748;-70
2021/10/24 01:02:14;;;;;;;0.40;0.20;;;4.70;99.90;;;;;;5088943;28;20531;-70
2021/10/24 01:04:40;;;;;;;0.40;0.20;;;4.70;99.90;;;;;;5092055;28;20949;-70
2021/10/24 01:07:07;;;;;;;0.40;0.20;;;4.80;99.90;;;;;;5092757;28;20730;-70
2021/10/24 01:09:33;;;;;;;0.40;0.20;;;4.80;99.90;;;;;;5092062;28;20370;-69
2021/10/24 01:11:59;;;;;;;0.40;0.20;;;4.70;99.90;;;;;;5092089;28;20406;-70
2021/10/24 01:14:26;;;;;;;0.40;0.40;;;4.80;99.90;;;;;;5092036;28;20382;-71
2021/10/24 01:16:52;;;;;;;0.40;0.20;;;4.60;99.90;;;;;;5076627;28;20383;-70
2021/10/24 01:19:19;;;;;;;0.40;0.20;;;4.70;99.90;;;;;;5070943;28;20392;-70
2021/10/24 01:21:45;;;;;;;0.40;0.20;;;4.60;99.90;;;;;;5069972;28;21029;-70
2021/10/24 01:24:11;;;;;;;0.40;0.30;;;4.70;99.90;;;;;;5071848;28;20435;-70
2021/10/24 01:26:39;;;;;;;0.40;0.20;;;4.60;99.90;;;;;;5071218;28;20380;-70
2021/10/24 01:29:06;;;;;;;0.40;0.30;;;4.60;99.90;;;;;;5071842;28;20775;-70
2021/10/24 01:31:32;;;;;;;0.40;0.30;;;4.70;99.90;;;;;;5070769;28;20383;-70
2021/10/24 01:33:58;;;;;;;0.43;0.40;;;4.60;99.90;;;;;;5072305;28;20402;-69
2021/10/24 01:36:23;;;;;;;0.40;0.20;;;4.50;99.90;;;;;;5071718;28;20458;-72
2021/10/24 01:38:49;;;;;;;0.40;0.30;;;4.40;99.90;;;;;;5071378;28;20716;-70
2021/10/24 01:41:18;;;;;;;0.40;0.20;;;4.40;99.90;;;;;;5071918;28;20380;-70
2021/10/24 01:43:44;;;;;;;0.40;0.20;;;4.60;99.90;;;;;;5070978;28;20418;-70
2021/10/24 01:46:10;;;;;;;0.40;0.20;;;4.40;99.90;;;;;;5080884;28;20392;-70
2021/10/24 01:48:36;;;;;;;0.40;0.20;;;4.60;99.90;;;;;;5090969;28;20469;-70
2021/10/24 01:51:03;;;;;;;0.40;0.20;;;4.50;99.90;;;;;;5090623;28;20473;-70
2021/10/24 01:53:31;;;;;;;0.40;0.20;;;4.60;99.90;;;;;;5091136;28;20394;-71
2021/10/24 01:55:57;;;;;;;0.40;0.20;;;4.60;99.90;;;;;;5091761;28;20457;-70
2021/10/24 01:58:24;;;;;;;0.40;0.20;;;4.50;99.90;;;;;;5091766;28;20397;-70
2021/10/24 02:00:50;;;;;;;0.40;0.30;;;4.40;99.90;;;;;;5090745;28;20381;-70
2021/10/24 02:03:16;;;;;;;0.40;0.20;;;4.50;99.90;;;;;;5091874;28;20760;-70
2021/10/24 02:05:42;;;;;;;0.40;0.20;;;4.50;99.90;;;;;;5090837;28;20389;-70
2021/10/24 02:08:08;;;;;;;0.40;0.20;;;4.50;99.90;;;;;;5091623;28;20374;-70
2021/10/24 02:10:35;;;;;;;0.50;0.50;;;4.20;99.90;;;;;;5090700;28;20378;-70
2021/10/24 02:13:02;;;;;;;0.40;0.30;;;4.20;99.90;;;;;;5091578;28;20401;-70
2021/10/24 02:15:27;;;;;;;0.40;0.20;;;4.10;99.90;;;;;;5091237;28;20415;-71
2021/10/24 02:17:53;;;;;;;0.40;0.30;;;3.90;99.90;;;;;;5091124;28;20370;-70
2021/10/24 02:20:19;;;;;;;0.40;0.20;;;4.00;99.90;;;;;;5091408;28;20436;-70
2021/10/24 02:22:45;;;;;;;0.40;0.20;;;4.00;99.90;;;;;;5089021;28;20733;-70
2021/10/24 02:25:11;;;;;;;0.40;0.20;;;3.90;99.90;;;;;;5091406;28;20570;-69
2021/10/24 02:27:38;;;;;;;0.40;0.20;;;3.90;99.90;;;;;;5090397;28;20436;-70
2021/10/24 02:30:05;;;;;;;0.40;0.20;;;3.90;99.90;;;;;;5091217;28;20397;-70
2021/10/24 02:32:31;;;;;;;0.40;0.20;;;3.90;99.90;;;;;;5090308;28;20469;-71
2021/10/24 02:34:56;;;;;;;0.40;0.20;;;3.90;99.90;;;;;;5091223;28;20473;-70
2021/10/24 02:37:22;;;;;;;0.40;0.20;;;3.90;99.90;;;;;;5090799;28;20382;-70
2021/10/24 02:39:48;;;;;;;0.40;0.40;;;3.90;99.90;;;;;;5090074;28;20374;-70
2021/10/24 02:42:13;;;;;;;0.50;0.40;;;3.90;99.90;;;;;;5090489;28;20382;-70
2021/10/24 02:44:39;;;;;;;0.40;0.20;;;3.90;99.90;;;;;;5090150;28;20893;-70
2021/10/24 02:47:05;;;;;;;0.40;0.20;;;3.90;99.90;;;;;;5089518;28;20415;-70
2021/10/24 02:49:30;;;;;;;0.40;0.20;;;4.00;99.90;;;;;;5088534;28;20397;-71
2021/10/24 02:51:57;;;;;;;0.40;0.30;;;4.10;99.90;;;;;;5089112;28;20408;-70
2021/10/24 02:54:23;;;;;;;0.40;0.20;;;3.90;99.90;;;;;;5081026;28;20399;-70
2021/10/24 02:56:49;;;;;;;0.40;0.25;;;3.90;99.90;;;;;;5088394;28;20382;-70
2021/10/24 02:59:15;;;;;;;0.40;0.20;;;3.80;99.90;;;;;;5075794;28;20383;-70
2021/10/24 03:01:41;;;;;;;0.40;0.20;;;3.90;99.90;;;;;;5069546;28;20474;-70
2021/10/24 03:04:07;;;;;;;0.40;0.20;;;4.00;99.90;;;;;;5086559;28;20397;-70
2021/10/24 03:06:33;;;;;;;0.40;0.30;;;4.00;99.90;;;;;;5088579;28;20394;-71
2021/10/24 03:08:58;;;;;;;0.40;0.40;;;3.90;99.90;;;;;;5087426;28;20380;-70
2021/10/24 03:11:24;;;;;;;0.40;0.40;;;4.10;99.90;;;;;;5070668;28;20412;-70
2021/10/24 03:13:50;;;;;;;0.40;0.20;;;4.00;99.90;;;;;;5069674;28;20383;-70
2021/10/24 03:16:16;;;;;;;0.40;0.40;;;4.00;99.90;;;;;;5070372;28;20394;-70
2021/10/24 03:18:41;;;;;;;0.40;0.20;;;4.00;99.90;;;;;;5069590;28;20384;-70
2021/10/24 03:21:07;;;;;;;0.40;0.20;;;4.10;99.90;;;;;;5070353;28;20867;-70
2021/10/24 03:23:33;;;;;;;0.40;0.20;;;4.00;99.90;;;;;;5079775;28;20421;-72
2021/10/24 03:25:59;;;;;;;0.40;0.20;;;4.00;99.90;;;;;;5090257;28;20405;-70
2021/10/24 03:28:24;;;;;;;0.40;0.30;;;3.80;99.90;;;;;;5089923;28;20386;-70
2021/10/24 03:30:50;;;;;;;0.40;0.20;;;3.90;99.90;;;;;;5089734;28;20378;-70
2021/10/24 03:33:16;;;;;;;0.40;0.20;;;3.80;99.90;;;;;;5090438;28;20398;-70
2021/10/24 03:35:43;;;;;;;0.40;0.30;;;3.90;99.90;;;;;;5089566;28;20375;-70
2021/10/24 03:38:09;;;;;;;0.40;0.20;;;3.90;99.90;;;;;;5090633;28;20382;-70
2021/10/24 03:40:35;;;;;;;0.40;0.20;;;3.90;99.90;;;;;;5089652;28;20439;-72
2021/10/24 03:43:01;;;;;;;0.40;0.20;;;3.90;99.90;;;;;;5090361;28;20386;-70
2021/10/24 03:45:27;;;;;;;0.40;0.20;;;3.80;99.90;;;;;;5088787;28;20755;-70
2021/10/24 03:47:53;;;;;;;0.40;0.20;;;3.70;99.90;;;;;;5089819;28;20416;-70
2021/10/24 03:50:18;;;;;;;0.40;0.20;;;3.70;99.90;;;;;;5090375;28;20385;-70
2021/10/24 03:52:44;;;;;;;0.40;0.20;;;3.80;99.90;;;;;;5089543;28;20844;-70
2021/10/24 03:55:12;;;;;;;0.40;0.20;;;3.60;99.90;;;;;;5090658;28;20831;-70
2021/10/24 03:57:41;;;;;;;1.30;0.90;;;3.50;99.90;;;;;;5089950;28;20389;-70
2021/10/24 04:00:08;;;;;;;0.43;0.25;;;3.50;99.90;;;;;;5090532;28;20382;-70
2021/10/24 04:02:46;;;;;;;0.40;0.20;;;3.30;99.90;;;;;;5090429;28;20397;-70
2021/10/24 04:05:14;;;;;;;0.50;0.40;;;3.40;99.90;;;;;;5090968;28;20464;-70
2021/10/24 04:07:40;;;;;;;0.40;0.22;;;3.50;99.90;;;;;;5090298;28;20382;-70
2021/10/24 04:10:06;;;;;;;0.50;0.50;;;3.50;99.90;;;;;;5092118;28;20382;-70
2021/10/24 04:12:32;;;;;;;0.40;0.20;;;3.50;99.90;;;;;;5094291;28;20866;-70
2021/10/24 04:14:57;;;;;;;0.40;0.20;;;3.50;99.90;;;;;;5094447;28;20431;-70
2021/10/24 04:17:23;;;;;;;0.40;0.40;;;3.70;99.90;;;;;;5093172;28;20888;-70
2021/10/24 04:19:49;;;;;;;1.70;0.80;;;3.60;99.90;;;;;;5094257;28;20372;-70
2021/10/24 04:22:14;;;;;;;0.40;0.30;;;3.60;99.90;;;;;;5094635;28;20374;-70
2021/10/24 04:24:40;;;;;;;0.40;0.20;;;3.70;99.90;;;;;;5093941;28;20496;-70
2021/10/24 04:27:05;;;;;;;0.40;0.30;;;3.40;99.90;;;;;;5094379;28;20386;-70
2021/10/24 04:29:31;;;;;;;0.40;0.20;;;3.40;99.90;;;;;;5094450;28;20873;-70
2021/10/24 04:31:57;;;;;;;0.40;0.20;;;3.60;99.90;;;;;;5093604;28;20825;-70
2021/10/24 04:34:22;;;;;;;0.40;0.20;;;3.50;99.90;;;;;;5094264;28;20390;-69
2021/10/24 04:36:48;;;;;;;0.40;0.20;;;3.30;99.90;;;;;;5094049;28;20374;-70
2021/10/24 04:39:14;;;;;;;0.40;0.20;;;3.30;99.90;;;;;;5094184;28;20399;-70
2021/10/24 04:41:39;;;;;;;0.40;0.20;;;3.30;99.90;;;;;;5093543;28;20405;-70
2021/10/24 04:44:05;;;;;;;0.40;0.20;;;3.30;99.90;;;;;;5093979;28;20488;-70
2021/10/24 04:46:31;;;;;;;0.40;0.20;;;3.30;99.90;;;;;;5093951;28;20872;-70
2021/10/24 04:48:56;;;;;;;3.10;0.70;;;3.20;99.90;;;;;;5093401;28;20409;-70
2021/10/24 04:51:22;;;;;;;0.40;0.20;;;3.20;99.90;;;;;;5093774;28;20378;-70
2021/10/24 04:53:47;;;;;;;0.40;0.20;;;3.20;99.90;;;;;;5092802;28;20417;-70
2021/10/24 04:56:13;;;;;;;0.40;0.20;;;2.90;99.90;;;;;;5080359;28;20387;-70
2021/10/24 04:58:39;;;;;;;0.80;0.60;;;3.00;99.90;;;;;;5072974;28;20865;-70
2021/10/24 05:01:04;;;;;;;0.40;0.20;;;2.90;99.90;;;;;;5073403;28;20412;-70
2021/10/24 05:03:30;;;;;;;0.40;0.20;;;3.00;99.90;;;;;;5076751;28;20397;-70
2021/10/24 05:05:57;;;;;;;0.40;0.30;;;3.00;99.90;;;;;;5092666;28;20417;-70
2021/10/24 05:08:22;;;;;;;0.40;0.20;;;3.00;99.90;;;;;;5081645;28;20773;-70
2021/10/24 05:10:48;;;;;;;0.40;0.20;;;3.00;99.90;;;;;;5072885;28;20371;-70
2021/10/24 05:13:15;;;;;;;0.40;0.20;;;2.80;99.90;;;;;;5073350;28;20376;-70
2021/10/24 05:15:41;;;;;;;0.40;0.20;;;2.90;99.90;;;;;;5072554;28;20386;-70
2021/10/24 05:18:06;;;;;;;0.40;0.20;;;2.90;99.90;;;;;;5073399;28;20923;-69
2021/10/24 05:20:32;;;;;;;0.40;0.30;;;3.00;99.90;;;;;;5073253;28;20461;-70
2021/10/24 05:22:58;;;;;;;0.40;0.20;;;3.00;99.90;;;;;;5071874;28;20371;-70
2021/10/24 05:25:24;;;;;;;0.50;0.50;;;3.00;99.90;;;;;;5072992;28;20554;-69
2021/10/24 05:27:54;;;;;;;0.40;0.20;;;3.00;99.90;;;;;;5071873;28;20838;-70
2021/10/24 05:30:21;;;;;;;1.83;0.43;;;3.00;99.90;;;;;;5072936;28;20387;-70
2021/10/24 05:32:47;;;;;;;0.40;0.20;;;2.90;99.90;;;;;;5072429;28;20391;-70
2021/10/24 05:35:12;;;;;;;0.40;0.20;;;2.90;99.90;;;;;;5072840;28;20380;-69
2021/10/24 05:37:38;;;;;;;0.40;0.30;;;2.70;99.90;;;;;;5071957;28;20392;-71
2021/10/24 05:40:04;;;;;;;0.40;0.20;;;2.60;99.90;;;;;;5072994;28;20383;-69
2021/10/24 05:42:30;;;;;;;0.40;0.20;;;2.60;99.90;;;;;;5071491;28;20388;-69
2021/10/24 05:44:55;;;;;;;0.40;0.40;;;2.50;99.90;;;;;;5071985;28;20822;-70
2021/10/24 05:47:21;;;;;;;0.40;0.20;;;2.70;99.90;;;;;;5084874;28;20425;-70
2021/10/24 05:49:49;;;;;;;0.40;0.20;;;2.70;99.90;;;;;;5083383;28;20840;-70
2021/10/24 05:52:15;;;;;;;1.30;0.60;;;2.70;99.90;;;;;;5079022;28;20416;-70
2021/10/24 05:54:41;;;;;;;0.40;0.20;;;2.80;99.90;;;;;;5078905;28;20539;-71
2021/10/24 05:57:06;;;;;;;0.40;0.20;;;2.70;99.90;;;;;;5078448;28;20381;-70
2021/10/24 05:59:32;;;;;;;0.40;0.20;;;2.80;99.90;;;;;;5077569;28;20393;-70
2021/10/24 06:01:58;;;;;;;1.10;0.80;;;2.60;99.90;;;;;;5079427;28;20742;-69
2021/10/24 06:04:23;;;;;;;0.40;0.20;;;2.60;99.90;;;;;;5078925;28;20472;-70
2021/10/24 06:06:49;;;;;;;0.40;0.20;;;2.70;99.90;;;;;;5078440;28;20390;-70
2021/10/24 06:09:14;;;;;;;0.40;0.20;;;2.80;99.90;;;;;;5077175;28;20378;-71
2021/10/24 06:11:54;;;;;;;0.40;0.20;;;2.80;99.90;;;;;;5078712;28;20467;-70
2021/10/24 06:14:19;;;;;;;0.40;0.30;;;2.80;99.90;;;;;;5079668;28;20401;-71
2021/10/24 06:16:45;;;;;;;0.70;0.40;;;2.70;99.90;;;;;;5078897;28;20382;-70
2021/10/24 06:19:10;;;;;;;0.40;0.30;;;2.70;99.90;;;;;;5078108;28;20378;-71
2021/10/24 06:21:36;;;;;;;0.40;0.20;;;2.70;99.90;;;;;;5079344;28;20390;-70
2021/10/24 06:24:02;;;;;;;0.60;0.60;;;2.80;99.90;;;;;;5078335;28;20645;-71
2021/10/24 06:26:27;;;;;;;0.40;0.20;;;2.90;99.90;;;;;;5079135;28;20442;-70
2021/10/24 06:28:53;;;;;;;0.40;0.20;;;2.90;99.90;;;;;;5076831;28;20387;-70
2021/10/24 06:31:19;;;;;;;0.40;0.27;;;3.00;99.90;;;;;;5078710;28;20893;-71
2021/10/24 06:33:44;;;;;;;0.40;0.20;;;3.10;99.90;;;;;;5075924;28;20400;-70
2021/10/24 06:36:10;;;;;;;0.40;0.30;;;3.00;99.90;;;;;;5079145;28;20378;-71
2021/10/24 06:38:35;;;;;;;0.40;0.40;;;3.00;99.90;;;;;;5076783;28;20402;-71
2021/10/24 06:41:01;;;;;;;0.40;0.20;;;3.00;99.90;;;;;;5077920;28;20414;-70
2021/10/24 06:43:27;;;;;;;0.40;0.40;;;3.10;99.90;;;;;;5078914;28;20387;-70
2021/10/24 06:45:52;;;;;;;0.40;0.20;;;3.10;99.90;;;;;;5077789;28;21244;-70
2021/10/24 06:48:18;;;;;;;0.40;0.20;;;3.00;99.90;;;;;;5077063;28;20866;-70
2021/10/24 06:50:44;;;;;;;0.40;0.20;;;3.10;99.90;;;;;;5077956;28;20382;-70
2021/10/24 06:53:09;;;;;;;0.40;0.20;;;3.20;99.90;;;;;;5078087;28;20521;-70
2021/10/24 06:55:35;;;;;;;0.40;0.20;;;3.20;99.90;;;;;;5077645;28;20421;-70
2021/10/24 06:58:01;;;;;;;0.40;0.20;;;3.20;99.90;;;;;;5076057;28;20378;-70
2021/10/24 07:00:28;;;;;;;0.40;0.20;;;3.30;99.90;;;;;;5078004;28;21592;-70
2021/10/24 07:02:53;;;;;;;0.40;0.40;;;3.30;99.90;;;;;;5077086;28;20870;-70
2021/10/24 07:05:20;;;;;;;0.40;0.20;;;3.40;99.90;;;;;;5077576;28;20410;-70
2021/10/24 07:07:46;;;;;;;0.40;0.20;;;3.40;99.90;;;;;;5076250;28;20401;-69
2021/10/24 07:10:12;;;;;;;1.30;0.90;;;3.60;99.90;;;;;;5078426;28;20373;-69
2021/10/24 07:12:39;;;;;;;0.40;0.20;;;3.50;99.90;;;;;;5076921;28;20402;-70
2021/10/24 07:15:07;;;;;;;0.40;0.30;;;3.60;99.90;;;;;;5078156;28;20382;-70
2021/10/24 07:17:33;;;;;;;0.40;0.20;;;3.70;99.90;;;;;;5078397;28;20429;-70
2021/10/24 07:19:58;;;;;;;0.40;0.20;;;3.70;99.90;;;;;;5074927;28;20497;-69
2021/10/24 07:22:24;;;;;;;0.40;0.20;;;3.70;99.90;;;;;;5078618;28;20390;-71
2021/10/24 07:24:50;;;;;;;0.40;0.20;;;3.80;99.90;;;;;;5078155;28;20406;-70
2021/10/24 07:27:17;;;;;;;0.50;0.50;;;3.80;99.90;;;;;;5078879;28;21161;-71
2021/10/24 07:29:43;;;;;;;0.40;0.20;;;3.90;99.90;;;;;;5076454;28;20383;-72
2021/10/24 07:32:09;;;;;;;0.40;0.20;;;4.00;99.90;;;;;;5078260;28;20483;-67
2021/10/24 07:34:35;;;;;;;0.40;0.30;;;4.10;99.90;;;;;;5076932;28;20955;-68
2021/10/24 07:37:00;;;;;;;0.40;0.20;;;4.10;99.90;;;;;;5075306;28;20414;-70
2021/10/24 07:39:26;;;;;;;0.40;0.20;;;4.30;99.90;;;;;;5075624;28;20387;-69
2021/10/24 07:41:52;;;;;;;2.10;1.00;;;4.30;99.90;;;;;;5076873;28;20852;-71
2021/10/24 07:44:18;;;;;;;0.40;0.20;;;4.30;99.90;;;;;;5075829;28;20410;-71
2021/10/24 07:46:45;;;;;;;0.40;0.30;;;4.60;99.90;;;;;;5079380;28;20882;-71
2021/10/24 07:49:12;;;;;;;0.60;0.60;;;4.60;99.90;;;;;;5079647;28;20397;-71
2021/10/24 07:51:38;;;;;;;0.40;0.20;;;4.60;99.90;;;;;;5082146;28;20456;-70
2021/10/24 07:54:04;;;;;;;0.40;0.20;;;4.70;99.90;;;;;;5080661;28;20646;-71
2021/10/24 07:56:33;;;;;;;1.00;0.90;;;4.80;99.90;;;;;;5081459;28;20374;-71
2021/10/24 07:59:00;;;;;;;0.40;0.30;;;4.90;99.90;;;;;;5079332;28;20901;-68
2021/10/24 08:01:26;;;;;;;0.40;0.20;;;5.10;99.90;;;;;;5081914;28;20382;-69
2021/10/24 08:03:53;;;;;;;0.40;0.20;;;5.20;99.90;;;;;;5081058;28;20448;-68
2021/10/24 08:06:21;;;;;;;0.40;0.20;;;5.30;99.90;;;;;;5081363;28;20839;-69
2021/10/24 08:08:50;;;;;;;0.40;0.20;;;5.30;99.90;;;;;;5080699;28;20465;-71
2021/10/24 08:11:17;;;;;;;0.40;0.30;;;5.30;99.90;;;;;;5091374;28;20382;-68
2021/10/24 08:13:42;;;;;;;0.40;0.20;;;5.30;99.90;;;;;;5094084;28;20386;-68
2021/10/24 08:16:08;;;;;;;0.40;0.30;;;5.60;99.90;;;;;;5092416;28;20427;-69
2021/10/24 08:18:33;;;;;;;0.40;0.20;;;5.60;99.90;;;;;;5093234;28;20378;-69
2021/10/24 08:20:59;;;;;;;0.40;0.30;;;5.70;99.90;;;;;;5092594;28;20374;-69
2021/10/24 08:23:26;;;;;;;0.40;0.20;;;5.80;99.90;;;;;;5091942;28;20397;-69
2021/10/24 08:25:52;;;;;;;0.40;0.20;;;5.90;99.90;;;;;;5092278;28;20378;-69
2021/10/24 08:28:18;;;;;;;0.40;0.30;;;6.00;99.90;;;;;;5092677;28;20386;-69
2021/10/24 08:30:44;;;;;;;0.40;0.20;;;6.00;99.90;;;;;;5092813;28;20408;-69
2021/10/24 08:33:12;;;;;;;0.40;0.20;;;6.20;99.90;;;;;;5092785;28;20854;-69
2021/10/24 08:35:38;;;;;;;0.40;0.20;;;6.20;99.90;;;;;;5093204;28;20410;-69
2021/10/24 08:38:03;;;;;;;0.40;0.40;;;6.40;99.90;;;;;;5092635;28;20921;-69
2021/10/24 08:40:29;;;;;;;0.40;0.20;;;6.50;99.90;;;;;;5092038;28;20422;-69
2021/10/24 08:43:14;;;;;;;0.40;0.20;;;6.60;99.90;;;;;;5092813;28;20382;-69
2021/10/24 08:45:42;;;;;;;0.40;0.20;;;6.70;99.90;;;;;;5092769;28;20397;-68
2021/10/24 08:48:08;;;;;;;0.40;0.20;;;6.80;99.90;;;;;;5092857;28;20390;-68
2021/10/24 08:50:34;;;;;;;0.40;0.20;;;7.00;99.90;;;;;;5093585;28;20718;-68
2021/10/24 08:53:04;;;;;;;0.50;0.50;;;7.10;99.90;;;;;;5092769;28;20397;-68
2021/10/24 08:55:31;;;;;;;0.40;0.30;;;7.10;99.90;;;;;;5081535;28;20452;-68
2021/10/24 08:57:58;;;;;;;0.40;0.30;;;7.30;99.90;;;;;;5089059;28;20467;-69
2021/10/24 09:00:24;;;;;;;0.40;0.20;;;7.30;99.90;;;;;;5073318;28;20383;-68
2021/10/24 09:02:55;;;;;;;0.40;0.30;;;7.60;99.90;;;;;;5072425;28;20479;-69
2021/10/24 09:05:42;;;;;;;0.40;0.28;;;7.70;99.90;;;;;;5072874;28;20411;-69
2021/10/24 09:08:16;;;;;;;0.60;0.60;;;7.70;99.90;;;;;;5080341;28;20802;-68
2021/10/24 09:10:52;;;;;;;0.40;0.20;;;7.90;99.90;;;;;;5091262;28;20382;-69
2021/10/24 09:13:21;;;;;;;0.70;0.70;;;8.10;99.90;;;;;;5093025;28;20405;-68
2021/10/24 09:16:02;;;;;;;0.40;0.30;;;8.30;99.90;;;;;;5092960;28;20532;-68
2021/10/24 09:18:32;;;;;;;0.40;0.20;;;8.50;99.90;;;;;;5092866;28;20894;-68
2021/10/24 09:21:25;;;;;;;0.40;0.30;;;8.60;99.90;;;;;;5092612;28;20386;-69
2021/10/24 09:24:11;;;;;;;0.40;0.20;;;8.70;99.90;;;;;;5079188;28;20852;-69
2021/10/24 09:26:43;;;;;;;0.40;0.20;;;8.80;99.90;;;;;;5072670;28;20388;-68
2021/10/24 09:29:13;;;;;;;0.40;0.35;;;8.70;99.90;;;;;;5072022;28;21267;-68
2021/10/24 09:31:53;;;;;;;0.40;0.20;;;8.80;99.90;;;;;;5072591;28;20396;-68
2021/10/24 09:34:21;;;;;;;0.40;0.28;;;8.90;99.90;;;;;;5072752;28;20403;-68
2021/10/24 09:37:08;;;;;;;0.60;0.60;;;9.00;99.90;;;;;;5071521;28;20729;-69
2021/10/24 09:39:36;;;;;;;0.40;0.25;;;9.10;99.90;;;;;;5072445;28;20709;-68
2021/10/24 09:42:17;;;;;;;0.40;0.20;;;9.00;99.90;;;;;;5071964;28;20383;-69
2021/10/24 09:45:09;;;;;;;1.50;0.70;;;9.10;99.90;;;;;;5072369;28;20448;-69
2021/10/24 09:47:41;;;;;;;0.40;0.20;;;9.10;99.90;;;;;;5072575;28;20897;-69
2021/10/24 09:50:09;;;;;;;0.40;0.20;;;9.30;99.90;;;;;;5071656;28;20422;-69
2021/10/24 09:52:36;;;;;;;3.10;1.00;;;9.30;99.90;;;;;;5072209;28;20824;-69
2021/10/24 09:55:17;;;;;;;0.40;0.40;;;9.30;99.90;;;;;;5071572;28;20419;-68
2021/10/24 09:57:44;;;;;;;0.40;0.20;;;9.40;99.90;;;;;;5072233;28;20867;-68
2021/10/24 10:00:11;;;;;;;0.40;0.20;;;9.50;99.90;;;;;;5071372;28;20875;-69
2021/10/24 10:02:38;;;;;;;0.80;0.70;;;9.60;99.90;;;;;;5072392;28;20392;-69
2021/10/24 10:05:04;;;;;;;0.40;0.30;;;9.70;99.90;;;;;;5071375;28;20431;-69
2021/10/24 10:07:30;;;;;;;1.00;0.50;;;9.70;99.90;;;;;;5084880;28;20956;-70
2021/10/24 10:09:57;;;;;;;0.40;0.20;;;9.80;99.90;;;;;;5082548;28;20386;-69
2021/10/24 10:12:25;;;;;;;0.50;0.50;;;9.80;99.90;;;;;;5079072;28;20394;-69
2021/10/24 10:14:57;;;;;;;0.40;0.30;;;9.90;99.90;;;;;;5079255;28;21644;-71
2021/10/24 10:17:24;;;;;;;0.40;0.20;;;9.90;99.90;;;;;;5078115;28;20467;-70
2021/10/24 10:19:51;;;;;;;0.40;0.30;;;10.00;99.90;;;;;;5079267;28;20397;-69
2021/10/24 10:22:24;;;;;;;0.40;0.30;;;10.10;99.90;;;;;;5078720;28;20374;-70
2021/10/24 10:25:03;;;;;;;0.40;0.20;;;10.20;99.90;;;;;;5078690;28;20417;-69
2021/10/24 10:27:35;;;;;;;0.40;0.30;;;10.40;99.90;;;;;;5077233;28;20405;-68
2021/10/24 10:30:31;;;;;;;0.40;0.20;;;10.50;99.90;;;;;;5078359;28;20439;-70
2021/10/24 10:32:57;;;;;;;0.40;0.30;;;10.60;99.90;;;;;;5078760;28;20402;-70
2021/10/24 10:35:25;;;;;;;0.40;0.20;;;10.70;99.90;;;;;;5078422;28;20402;-69
2021/10/24 10:38:01;;;;;;;0.43;0.38;;;10.80;99.90;;;;;;5076912;28;20385;-69
2021/10/24 10:40:33;;;;;;;0.70;0.60;;;10.90;99.90;;;;;;5078674;28;20405;-69
2021/10/24 10:43:05;;;;;;;0.40;0.20;;;11.00;99.90;;;;;;5077634;28;20960;-69
2021/10/24 10:45:33;;;;;;;7.40;0.90;;;11.10;99.90;;;;;;5078191;28;20414;-69
2021/10/24 10:48:20;;;;;;;0.40;0.30;;;11.30;99.90;;;;;;5075620;28;20897;-69
2021/10/24 10:50:47;;;;;;;0.40;0.20;;;11.30;99.80;;;;;;5078276;28;20477;-70
2021/10/24 10:53:39;;;;;;;0.60;0.50;;;11.80;99.60;;;;;;5077834;28;20397;-68
2021/10/24 10:56:08;;;;;;;0.60;0.50;;;11.70;98.70;;;;;;5076496;28;20401;-69
2021/10/24 10:58:46;;;;;;;0.80;0.80;;;12.00;97.80;;;;;;5075901;28;20874;-69
2021/10/24 11:01:21;;;;;;;0.40;0.30;;;12.30;96.70;;;;;;5076570;28;21159;-69
2021/10/24 11:03:58;;;;;;;0.50;0.50;;;12.90;95.40;;;;;;5076936;28;20413;-69
2021/10/24 11:06:27;;;;;;;0.40;0.30;;;13.00;93.70;;;;;;5076555;28;20473;-69
2021/10/24 11:08:57;;;;;;;0.60;0.40;;;13.90;93.90;;;;;;5076946;28;20481;-70
2021/10/24 11:11:55;;;;;;;0.40;0.40;;;15.00;91.30;;;;;;5079185;28;20459;-69
2021/10/24 11:14:33;;;;;;;0.40;0.20;;;15.30;87.10;;;;;;5043875;28;20908;-69
2021/10/24 11:17:00;;;;;;;0.40;0.30;;;14.90;87.00;;;;;;5076781;28;20394;-71
2021/10/24 11:19:28;;;;;;;0.40;0.30;;;15.90;86.00;;;;;;5077158;28;20378;-70
2021/10/24 11:22:04;;;;;;;0.40;0.40;;;16.20;84.70;;;;;;5078712;28;20947;-70
2021/10/24 11:24:32;;;;;;;0.40;0.30;;;15.60;81.90;;;;;;5078530;28;20440;-69
2021/10/24 11:27:02;;;;;;;0.40;0.30;;;16.00;85.70;;;;;;5077106;28;20461;-70
2021/10/24 11:29:28;;;;;;;0.40;0.20;;;16.10;81.40;;;;;;5077161;28;20482;-70
2021/10/24 11:32:35;;;;;;;0.40;0.30;;;15.60;82.50;;;;;;5079934;28;20476;-69
2021/10/24 11:35:17;;;;;;;0.40;0.28;;;16.50;82.30;;;;;;5076233;28;20503;-70
2021/10/24 11:38:05;;;;;;;0.40;0.20;;;16.10;79.70;;;;;;5076030;28;20391;-70
2021/10/24 11:40:37;;;;;;;0.40;0.30;;;16.10;82.00;;;;;;5091117;28;20382;-69
2021/10/24 11:43:05;;;;;;;0.40;0.20;;;17.40;80.40;;;;;;5090736;28;20385;-70
2021/10/24 11:45:40;;;;;;;0.40;0.30;;;16.70;79.40;;;;;;5075016;28;20437;-69
2021/10/24 11:48:11;;;;;;;0.40;0.30;;;17.30;78.00;;;;;;5089722;28;20382;-70
2021/10/24 11:50:55;;;;;;;0.40;0.30;;;17.30;74.60;;;;;;5090433;28;20374;-70
2021/10/24 11:53:32;;;;;;;0.40;0.30;;;17.60;73.50;;;;;;5089415;28;20424;-70
2021/10/24 11:56:05;;;;;;;0.40;0.20;;;17.10;75.70;;;;;;5090009;28;20412;-71
2021/10/24 12:01:23;;;;;;;0.40;0.20;;;17.60;75.60;;;;;;5089796;28;20927;-71
2021/10/24 12:03:53;;;;;;;0.40;0.20;;;17.50;75.30;;;;;;5090303;28;20448;-70
2021/10/24 12:06:39;;;;;;;0.40;0.30;;;17.50;74.70;;;;;;5089858;28;20385;-71
2021/10/24 12:09:05;;;;;;;0.40;0.30;;;17.50;76.90;;;;;;5088427;28;20765;-72
2021/10/24 12:11:43;;;;;;;0.40;0.30;;;17.70;77.20;;;;;;5090272;28;20927;-70
2021/10/24 12:14:11;;;;;;;0.40;0.30;;;16.70;71.30;;;;;;5089955;28;20469;-71
2021/10/24 12:16:40;;;;;;;0.40;0.30;;;17.00;80.50;;;;;;5090370;28;20375;-70
2021/10/24 12:19:32;;;;;;;0.40;0.30;;;16.50;78.00;;;;;;5089662;28;20386;-70
2021/10/24 12:22:04;;;;;;;0.50;0.40;;;16.30;76.60;;;;;;5090336;28;20397;-70
2021/10/24 12:25:06;;;;;;;0.40;0.20;;;16.70;78.90;;;;;;5090316;28;20874;-69
2021/10/24 12:27:34;;;;;;;0.40;0.30;;;16.70;77.40;;;;;;5008138;28;20401;-70
2021/10/24 12:30:11;;;;;;;0.40;0.20;;;16.50;76.70;;;;;;5075026;28;20858;-70
2021/10/24 12:32:55;;;;;;;0.40;0.30;;;16.40;78.60;;;;;;5092509;28;20850;-69
2021/10/24 12:35:21;;;;;;;0.40;0.40;;;16.10;79.90;;;;;;5093450;28;20674;-70
2021/10/24 12:38:02;;;;;;;0.50;0.40;;;16.00;79.00;;;;;;5093921;28;20378;-70
2021/10/24 12:40:33;;;;;;;0.40;0.30;;;16.70;78.20;;;;;;5093827;28;20370;-70
2021/10/24 12:43:13;;;;;;;0.40;0.30;;;16.20;78.70;;;;;;5093926;28;20379;-70
2021/10/24 12:45:49;;;;;;;0.40;0.30;;;16.30;79.50;;;;;;5093235;28;20398;-70
2021/10/24 12:48:16;;;;;;;0.40;0.20;;;16.50;77.30;;;;;;5093027;28;20382;-70
2021/10/24 12:50:42;;;;;;;0.40;0.20;;;16.40;76.90;;;;;;5093633;28;20389;-70
2021/10/24 12:53:10;;;;;;;0.90;0.50;;;16.70;78.70;;;;;;5092426;28;20402;-70
2021/10/24 12:55:37;;;;;;;0.40;0.30;;;16.60;76.70;;;;;;5093163;28;20382;-70
2021/10/24 12:58:03;;;;;;;0.40;0.40;;;17.00;77.30;;;;;;5092301;28;20410;-68
2021/10/24 13:00:30;;;;;;;0.40;0.30;;;16.40;80.20;;;;;;5092905;28;20424;-70
2021/10/24 13:02:56;;;;;;;0.40;0.20;;;17.40;79.70;;;;;;5093623;28;20777;-70
2021/10/24 13:05:25;;;;;;;0.50;0.40;;;17.80;76.80;;;;;;5092763;28;20732;-70